Time;durP1;ratioP1;P1;durP2;ratioP2;P2;SDS_P1;SDS_P2;PMS_P1;PMS_P2;Temp;Humidity;BMP_temperature;BMP_pressure;BME280_temperature;BME280_humidity;BME280_pressure;Samples;Min_cycle;Max_cycle;Signal;HPM_P1;HPM_P2
2023/10/22 17:42:48;;;;;;;16.45;5.70;;;19.60;66.20;;;;;;5188181;27;20459;-47
2023/10/22 17:45:14;;;;;;;12.13;5.55;;;19.70;65.90;;;;;;5171233;27;20472;-48
2023/10/22 17:47:40;;;;;;;13.25;6.05;;;19.70;65.70;;;;;;5169674;27;20026;-52
2023/10/22 17:50:06;;;;;;;13.23;5.15;;;19.80;65.90;;;;;;5170463;27;20030;-46
2023/10/22 17:52:32;;;;;;;13.57;5.53;;;19.80;66.40;;;;;;5138219;22;20625;-57
2023/10/22 17:54:57;;;;;;;11.30;6.18;;;19.90;66.90;;;;;;5079154;28;20099;-56
2023/10/22 17:57:23;;;;;;;24.25;5.78;;;19.90;68.60;;;;;;5088119;28;20438;-57
2023/10/22 17:59:49;;;;;;;15.73;5.65;;;20.00;67.80;;;;;;5081453;28;20021;-57
2023/10/22 18:02:15;;;;;;;19.52;6.30;;;20.10;69.20;;;;;;5045846;28;20479;-56
2023/10/22 18:04:41;;;;;;;27.40;6.75;;;20.20;68.70;;;;;;5048395;28;20051;-56
2023/10/22 18:07:07;;;;;;;38.10;6.43;;;20.30;71.00;;;;;;5048523;28;20021;-60
2023/10/22 18:09:33;;;;;;;26.58;6.47;;;20.30;71.50;;;;;;5048491;28;20403;-56
2023/10/22 18:12:03;;;;;;;28.65;6.22;;;20.30;70.70;;;;;;5047737;28;20067;-58
2023/10/22 18:14:29;;;;;;;24.63;6.57;;;20.30;71.40;;;;;;5048287;28;20498;-58
2023/10/22 18:16:55;;;;;;;22.10;6.57;;;20.30;73.20;;;;;;5048187;28;20024;-55
2023/10/22 18:19:22;;;;;;;24.75;6.78;;;20.30;74.60;;;;;;5046268;28;20036;-59
2023/10/22 18:21:48;;;;;;;18.13;7.15;;;20.30;74.20;;;;;;5045599;28;20025;-58
2023/10/22 18:24:17;;;;;;;16.65;7.38;;;20.30;75.00;;;;;;5047929;28;20403;-57
2023/10/22 18:26:43;;;;;;;28.25;6.50;;;20.30;73.90;;;;;;5047689;28;20435;-58
2023/10/22 18:29:08;;;;;;;15.43;6.60;;;20.30;73.00;;;;;;5045746;28;20029;-58
2023/10/22 18:31:34;;;;;;;22.38;6.95;;;20.20;73.20;;;;;;5045664;28;20033;-59
2023/10/22 18:34:00;;;;;;;29.38;7.35;;;20.30;73.00;;;;;;5046582;28;20099;-64
2023/10/22 18:36:26;;;;;;;24.85;6.95;;;20.20;72.80;;;;;;5043211;28;20025;-58
2023/10/22 18:38:52;;;;;;;29.70;7.75;;;20.30;72.40;;;;;;5046878;28;20021;-56
2023/10/22 18:41:18;;;;;;;27.75;7.32;;;20.30;72.80;;;;;;5045428;28;20025;-58
2023/10/22 18:43:46;;;;;;;24.15;6.72;;;20.30;72.40;;;;;;5031825;28;20013;-56
2023/10/22 18:46:13;;;;;;;21.95;7.45;;;20.30;72.30;;;;;;5026321;28;20064;-57
2023/10/22 18:48:40;;;;;;;25.13;7.88;;;20.30;72.40;;;;;;5034113;28;20063;-58
2023/10/22 18:51:05;;;;;;;27.10;8.23;;;20.30;72.50;;;;;;5033770;28;20033;-58
2023/10/22 18:53:31;;;;;;;22.30;7.07;;;20.30;72.50;;;;;;5016504;28;20056;-58
2023/10/22 18:56:03;;;;;;;20.10;7.78;;;20.20;72.40;;;;;;5034062;28;20079;-58
2023/10/22 18:58:28;;;;;;;22.52;7.38;;;20.30;72.20;;;;;;5016474;28;20018;-55
2023/10/22 19:00:54;;;;;;;23.73;8.10;;;20.20;71.90;;;;;;5032214;28;20030;-57
2023/10/22 19:03:20;;;;;;;33.00;9.02;;;20.20;71.80;;;;;;5033800;28;20543;-58
2023/10/22 19:05:46;;;;;;;30.75;8.80;;;20.20;71.70;;;;;;5034045;28;20034;-58
2023/10/22 19:08:12;;;;;;;30.95;10.00;;;20.20;71.70;;;;;;5033895;28;20029;-58
2023/10/22 19:10:38;;;;;;;33.47;9.85;;;20.20;71.70;;;;;;5032231;28;20080;-56
2023/10/22 19:13:06;;;;;;;28.67;8.38;;;20.20;71.60;;;;;;5033247;28;20021;-58
2023/10/22 19:15:36;;;;;;;27.42;9.32;;;20.30;71.30;;;;;;5034302;28;20017;-57
2023/10/22 19:18:03;;;;;;;30.52;9.82;;;20.30;71.40;;;;;;5033521;28;20021;-56
2023/10/22 19:20:29;;;;;;;27.90;8.63;;;20.30;71.20;;;;;;5036953;28;20036;-58
2023/10/22 19:22:56;;;;;;;23.52;8.77;;;20.30;70.90;;;;;;5042550;28;20056;-55
2023/10/22 19:25:22;;;;;;;32.47;8.98;;;20.30;71.10;;;;;;5048162;28;20057;-58
2023/10/22 19:27:48;;;;;;;31.20;10.50;;;20.30;71.40;;;;;;5050512;28;20519;-57
2023/10/22 19:30:13;;;;;;;36.95;10.82;;;20.30;71.80;;;;;;5049301;28;20064;-58
2023/10/22 19:32:39;;;;;;;34.92;9.55;;;20.30;71.70;;;;;;5040887;28;20017;-56
2023/10/22 19:35:08;;;;;;;38.10;9.50;;;20.40;71.40;;;;;;5041643;28;20043;-58
2023/10/22 19:37:35;;;;;;;36.78;10.00;;;20.40;70.90;;;;;;5047238;28;20450;-58
2023/10/22 19:40:07;;;;;;;42.25;11.02;;;20.40;71.40;;;;;;5050164;28;20431;-58
2023/10/22 19:42:32;;;;;;;29.95;10.07;;;20.40;70.70;;;;;;5049207;28;20029;-56
2023/10/22 19:44:58;;;;;;;28.90;9.48;;;20.40;70.60;;;;;;5049480;28;20139;-56
2023/10/22 19:47:24;;;;;;;24.20;9.25;;;20.40;70.40;;;;;;5042418;28;20463;-57
2023/10/22 19:49:50;;;;;;;32.17;10.00;;;20.40;70.40;;;;;;5033371;28;20519;-56
2023/10/22 19:52:16;;;;;;;34.53;10.30;;;20.40;70.20;;;;;;5042387;28;20424;-54
2023/10/22 19:54:42;;;;;;;28.55;9.25;;;20.30;70.10;;;;;;5048506;28;20082;-56
2023/10/22 19:57:08;;;;;;;32.78;9.02;;;20.30;70.00;;;;;;5049343;28;20037;-57
2023/10/22 19:59:34;;;;;;;24.23;9.63;;;20.30;70.00;;;;;;5040391;28;20021;-58
2023/10/22 20:02:01;;;;;;;26.83;9.30;;;20.30;70.00;;;;;;5046755;28;20538;-58
2023/10/22 20:04:28;;;;;;;24.65;8.60;;;20.30;70.10;;;;;;5039634;28;20040;-58
2023/10/22 20:06:54;;;;;;;27.45;9.30;;;20.30;70.10;;;;;;5048359;28;20037;-58
2023/10/22 20:09:20;;;;;;;27.33;9.30;;;20.30;70.20;;;;;;5049026;28;20076;-55
2023/10/22 20:11:46;;;;;;;25.35;9.55;;;20.30;70.20;;;;;;5049521;28;20463;-57
2023/10/22 20:14:11;;;;;;;27.10;9.55;;;20.30;70.40;;;;;;5040401;28;20063;-54
2023/10/22 20:16:38;;;;;;;35.67;9.40;;;20.30;70.30;;;;;;5043546;28;20028;-57
2023/10/22 20:19:04;;;;;;;30.00;9.55;;;20.30;70.20;;;;;;5049615;28;20108;-57
2023/10/22 20:21:31;;;;;;;22.95;8.60;;;20.30;70.30;;;;;;5049683;28;20048;-57
2023/10/22 20:23:57;;;;;;;29.00;9.35;;;20.30;70.20;;;;;;5043689;28;20024;-57
2023/10/22 20:26:24;;;;;;;22.58;8.35;;;20.30;70.80;;;;;;5040884;28;20025;-55
2023/10/22 20:28:50;;;;;;;22.15;8.50;;;20.30;70.20;;;;;;5046952;28;20031;-57
2023/10/22 20:31:16;;;;;;;25.00;8.75;;;20.30;70.20;;;;;;5048401;28;20037;-57
2023/10/22 20:33:47;;;;;;;21.48;8.70;;;20.30;70.20;;;;;;5049009;28;20088;-57
2023/10/22 20:36:15;;;;;;;22.25;8.85;;;20.30;70.10;;;;;;5040568;28;20024;-57
2023/10/22 20:38:42;;;;;;;26.33;8.88;;;20.30;70.10;;;;;;5045586;28;20033;-58
2023/10/22 20:41:08;;;;;;;20.73;8.25;;;20.30;70.10;;;;;;5048234;28;20091;-57
2023/10/22 20:43:38;;;;;;;24.38;8.63;;;20.20;70.00;;;;;;5048043;28;20033;-54
2023/10/22 20:46:05;;;;;;;;;;;20.30;70.00;;;;;;5044758;28;20020;-58
2023/10/22 20:48:32;;;;;;;24.70;7.90;;;20.20;69.90;;;;;;5043586;28;20364;-54
2023/10/22 20:51:14;;;;;;;23.05;8.65;;;20.20;69.90;;;;;;5048432;28;20056;-58
2023/10/22 20:53:42;;;;;;;20.92;7.45;;;20.20;70.00;;;;;;5048404;28;20373;-58
2023/10/22 20:56:11;;;;;;;22.80;7.82;;;20.20;70.00;;;;;;5042585;28;20072;-55
2023/10/22 20:58:37;;;;;;;21.75;7.90;;;20.20;69.80;;;;;;5046451;28;20191;-58
2023/10/22 21:01:14;;;;;;;19.80;7.70;;;20.20;69.80;;;;;;5047536;28;20108;-58
2023/10/22 21:03:40;;;;;;;23.98;7.65;;;20.20;70.00;;;;;;5048757;28;20025;-58
2023/10/22 21:06:06;;;;;;;19.15;7.65;;;20.20;69.90;;;;;;5015644;28;20041;-58
2023/10/22 21:08:32;;;;;;;24.95;7.65;;;20.20;69.80;;;;;;5044706;28;20056;-58
2023/10/22 21:10:58;;;;;;;17.48;7.63;;;20.20;69.80;;;;;;5030389;28;20076;-58
2023/10/22 21:13:23;;;;;;;20.60;7.75;;;20.20;69.80;;;;;;5047850;28;20044;-55
2023/10/22 21:15:49;;;;;;;22.05;8.02;;;20.20;69.60;;;;;;5016525;28;20025;-58
2023/10/22 21:18:15;;;;;;;17.08;7.32;;;20.20;69.50;;;;;;5044041;28;20025;-58
2023/10/22 21:20:41;;;;;;;16.90;7.72;;;20.20;69.40;;;;;;5047608;28;20024;-58
2023/10/22 21:23:07;;;;;;;21.60;7.55;;;20.30;69.30;;;;;;5046787;28;20037;-58
2023/10/22 21:25:35;;;;;;;17.05;6.90;;;20.30;69.90;;;;;;5042261;28;20026;-56
2023/10/22 21:28:01;;;;;;;19.67;7.25;;;20.30;70.10;;;;;;5036697;28;20032;-58
2023/10/22 21:30:26;;;;;;;22.30;7.32;;;20.30;70.40;;;;;;5034523;28;20081;-55
2023/10/22 21:32:52;;;;;;;19.50;7.13;;;20.30;70.10;;;;;;5007890;28;20577;-56
2023/10/22 21:35:18;;;;;;;16.63;6.97;;;20.30;70.20;;;;;;5034306;28;20091;-55
2023/10/22 21:37:44;;;;;;;16.88;6.55;;;20.30;69.80;;;;;;5032027;28;20040;-61
2023/10/22 21:40:10;;;;;;;18.15;7.55;;;20.30;69.80;;;;;;5031741;28;20053;-58
2023/10/22 21:42:35;;;;;;;27.25;8.05;;;20.30;70.20;;;;;;5031265;28;20492;-58
2023/10/22 21:45:02;;;;;;;20.83;6.93;;;20.40;70.20;;;;;;5031717;28;20104;-58
2023/10/22 21:47:30;;;;;;;20.00;6.97;;;20.30;70.20;;;;;;5031781;28;20112;-59
2023/10/22 21:49:55;;;;;;;24.90;7.20;;;20.40;70.20;;;;;;5031355;28;20047;-59
2023/10/22 21:52:22;;;;;;;21.38;6.47;;;20.30;70.20;;;;;;5012843;28;20451;-59
2023/10/22 21:54:49;;;;;;;20.50;7.03;;;20.30;71.00;;;;;;5031151;28;20028;-57
2023/10/22 21:57:14;;;;;;;26.63;6.22;;;20.30;69.90;;;;;;5031446;28;20078;-59
2023/10/22 21:59:40;;;;;;;34.53;6.88;;;20.30;70.00;;;;;;5031234;28;20034;-56
2023/10/22 22:02:06;;;;;;;18.23;5.78;;;20.30;69.20;;;;;;5030757;28;20045;-58
2023/10/22 22:04:32;;;;;;;14.93;4.97;;;20.20;66.90;;;;;;5032669;28;20132;-56
2023/10/22 22:06:59;;;;;;;14.00;3.60;;;20.20;66.90;;;;;;5031145;28;20041;-56
2023/10/22 22:09:25;;;;;;;9.02;2.72;;;20.10;66.20;;;;;;5030855;28;20073;-57
2023/10/22 22:11:50;;;;;;;5.63;2.30;;;20.00;66.90;;;;;;5029566;28;20562;-56
2023/10/22 22:14:16;;;;;;;8.02;2.53;;;19.90;64.30;;;;;;5031008;28;20048;-56
2023/10/22 22:16:42;;;;;;;8.63;2.55;;;19.90;65.20;;;;;;5028864;28;20022;-57
2023/10/22 22:19:08;;;;;;;15.18;3.30;;;19.90;64.80;;;;;;5034279;28;20065;-55
2023/10/22 22:21:34;;;;;;;5.32;2.00;;;19.90;65.10;;;;;;5034281;28;20036;-55
2023/10/22 22:24:00;;;;;;;7.88;2.50;;;19.90;65.10;;;;;;5034495;28;20485;-55
2023/10/22 22:26:26;;;;;;;10.00;2.53;;;20.00;65.20;;;;;;5034585;28;20055;-55
2023/10/22 22:28:52;;;;;;;7.35;2.53;;;20.00;65.40;;;;;;5034448;28;20037;-57
2023/10/22 22:31:18;;;;;;;8.98;2.63;;;20.00;65.40;;;;;;5034003;28;20029;-57
2023/10/22 22:33:44;;;;;;;7.20;2.80;;;20.00;65.60;;;;;;5034291;28;20051;-55
2023/10/22 22:36:10;;;;;;;8.45;2.45;;;20.10;65.60;;;;;;5033868;28;20488;-57
2023/10/22 22:38:36;;;;;;;8.93;2.20;;;20.10;65.70;;;;;;5016563;28;20025;-56
2023/10/22 22:41:02;;;;;;;7.55;2.85;;;20.10;65.80;;;;;;5034043;28;20447;-56
2023/10/22 22:43:28;;;;;;;5.28;2.63;;;20.00;65.80;;;;;;5034191;28;20030;-56
2023/10/22 22:45:54;;;;;;;4.82;2.67;;;20.10;65.90;;;;;;5034273;28;20037;-55
2023/10/22 22:48:20;;;;;;;8.82;2.47;;;20.10;66.40;;;;;;5034100;28;20029;-56
2023/10/22 22:50:46;;;;;;;7.90;2.67;;;20.10;66.50;;;;;;5034012;28;20037;-56
2023/10/22 22:53:11;;;;;;;11.18;3.22;;;20.10;67.00;;;;;;5034218;28;20021;-56
2023/10/22 22:55:37;;;;;;;6.38;2.95;;;20.10;66.40;;;;;;5033445;28;20025;-52
2023/10/22 22:58:03;;;;;;;6.15;2.50;;;20.10;66.30;;;;;;5032765;28;20013;-54
2023/10/22 23:00:30;;;;;;;10.10;2.85;;;20.10;66.20;;;;;;5033104;28;20034;-53
2023/10/22 23:02:55;;;;;;;8.00;2.55;;;20.10;66.40;;;;;;5032326;28;20017;-56
2023/10/22 23:05:22;;;;;;;7.43;2.83;;;20.00;66.40;;;;;;5033828;28;20033;-55
2023/10/22 23:07:48;;;;;;;6.82;2.60;;;20.00;66.50;;;;;;5033880;28;20512;-56
2023/10/22 23:10:14;;;;;;;7.68;2.53;;;20.00;66.40;;;;;;5033558;28;20026;-54
2023/10/22 23:12:39;;;;;;;4.82;2.50;;;20.00;66.50;;;;;;5033260;28;20063;-55
2023/10/22 23:15:06;;;;;;;9.48;2.80;;;20.00;66.60;;;;;;5033695;28;20025;-57
2023/10/22 23:17:32;;;;;;;8.15;2.72;;;20.00;66.50;;;;;;5032803;28;20060;-55
2023/10/22 23:19:58;;;;;;;9.45;2.60;;;20.00;66.50;;;;;;5031783;28;20030;-56
2023/10/22 23:22:24;;;;;;;6.90;2.83;;;20.00;66.50;;;;;;5029502;28;20497;-57
2023/10/22 23:24:49;;;;;;;16.77;3.88;;;20.00;66.60;;;;;;5033280;28;20033;-51
2023/10/22 23:27:15;;;;;;;7.63;2.78;;;20.10;66.70;;;;;;5032801;28;20064;-49
2023/10/22 23:29:42;;;;;;;12.18;2.92;;;20.10;66.80;;;;;;5032604;28;20095;-57
2023/10/22 23:32:08;;;;;;;6.97;2.83;;;20.00;66.70;;;;;;5031861;28;20026;-55
2023/10/22 23:34:34;;;;;;;5.32;2.83;;;20.00;66.80;;;;;;5031314;28;20064;-55
2023/10/22 23:37:02;;;;;;;6.32;2.67;;;20.00;66.80;;;;;;5032423;28;20021;-57
2023/10/22 23:39:28;;;;;;;5.47;2.65;;;20.00;66.70;;;;;;5032302;28;20045;-55
2023/10/22 23:42:03;;;;;;;7.50;2.70;;;20.10;67.40;;;;;;5033043;28;20535;-55
2023/10/22 23:44:29;;;;;;;9.00;2.95;;;20.00;67.00;;;;;;5031394;28;20116;-55
2023/10/22 23:46:55;;;;;;;7.35;2.72;;;20.00;67.00;;;;;;5032197;28;20033;-52
2023/10/22 23:49:21;;;;;;;7.70;2.50;;;20.00;67.00;;;;;;5032505;28;20021;-57
2023/10/22 23:51:47;;;;;;;6.18;2.78;;;20.00;67.20;;;;;;5057665;22;20060;-56
2023/10/22 23:54:12;;;;;;;7.10;2.40;;;20.00;67.40;;;;;;5072083;28;20423;-56
2023/10/22 23:56:38;;;;;;;6.07;2.83;;;20.00;67.40;;;;;;5066330;28;20426;-55
2023/10/22 23:59:04;;;;;;;6.25;2.90;;;20.00;67.60;;;;;;5069221;28;20083;-57
